createdAt,value
2018-06-10T00:00:50.791Z,13.80
2018-06-10T00:03:19.041Z,14.40
2018-06-10T00:05:47.284Z,14.83
2018-06-10T00:08:15.556Z,14.03
2018-06-10T00:10:43.947Z,14.40
2018-06-10T00:13:12.228Z,15.03
2018-06-10T00:15:40.476Z,14.70
2018-06-10T00:18:08.695Z,14.17
2018-06-10T00:20:36.691Z,15.50
2018-06-10T00:23:04.956Z,13.60
2018-06-10T00:25:33.224Z,15.40
2018-06-10T00:28:01.516Z,12.97
2018-06-10T00:30:29.752Z,14.90
2018-06-10T00:32:57.984Z,13.47
2018-06-10T00:35:25.991Z,14.77
2018-06-10T00:37:54.235Z,15.60
2018-06-10T00:40:22.680Z,15.60
2018-06-10T00:42:50.939Z,15.30
2018-06-10T00:45:19.199Z,15.00
2018-06-10T00:47:47.448Z,15.47
2018-06-10T00:50:15.710Z,14.37
2018-06-10T00:52:43.933Z,15.10
2018-06-10T00:55:12.183Z,15.70
2018-06-10T00:57:40.403Z,15.83
2018-06-10T01:00:08.698Z,15.93
2018-06-10T01:02:36.948Z,16.13
2018-06-10T01:05:05.234Z,14.40
2018-06-10T01:07:33.464Z,15.80
2018-06-10T01:10:01.801Z,16.67
2018-06-10T01:12:30.055Z,16.90
2018-06-10T01:14:58.319Z,15.17
2018-06-10T01:17:26.561Z,14.67
2018-06-10T01:19:54.549Z,15.90
2018-06-10T01:22:22.827Z,15.90
2018-06-10T01:24:51.048Z,15.93
2018-06-10T01:27:19.336Z,15.93
2018-06-10T01:29:47.585Z,15.70
2018-06-10T01:32:15.820Z,15.67
2018-06-10T01:34:44.074Z,16.20
2018-06-10T01:37:12.304Z,17.90
2018-06-10T01:39:40.728Z,16.93
2018-06-10T01:42:08.995Z,15.33
2018-06-10T01:44:37.260Z,16.20
2018-06-10T01:47:05.513Z,17.23
2018-06-10T01:49:33.783Z,14.97
2018-06-10T01:52:02.049Z,17.10
2018-06-10T01:54:30.288Z,16.00
2018-06-10T01:56:58.548Z,15.67
2018-06-10T01:59:26.824Z,16.73
2018-06-10T02:01:54.793Z,16.90
2018-06-10T02:04:23.053Z,18.47
2018-06-10T02:06:51.306Z,16.03
2018-06-10T02:09:19.616Z,17.03
2018-06-10T02:11:47.875Z,16.50
2018-06-10T02:14:16.128Z,18.20
2018-06-10T02:16:44.394Z,16.43
2018-06-10T02:19:12.387Z,18.07
2018-06-10T02:21:40.624Z,17.20
2018-06-10T02:24:08.864Z,17.17
2018-06-10T02:26:37.128Z,17.07
2018-06-10T02:29:05.376Z,17.07
2018-06-10T02:31:33.636Z,16.60
2018-06-10T02:34:01.688Z,17.80
2018-06-10T02:36:29.706Z,17.63
2018-06-10T02:38:57.952Z,17.50
2018-06-10T02:41:26.221Z,16.77
2018-06-10T02:43:54.482Z,20.23
2018-06-10T02:46:22.732Z,16.30
2018-06-10T02:48:50.984Z,17.97
2018-06-10T02:51:19.234Z,17.77
2018-06-10T02:53:47.471Z,19.30
2018-06-10T02:56:15.741Z,18.67
2018-06-10T02:58:43.996Z,19.80
2018-06-10T03:01:12.263Z,20.40
2018-06-10T03:03:40.496Z,18.37
2018-06-10T03:06:08.728Z,20.00
2018-06-10T03:08:36.926Z,19.47
2018-06-10T03:11:05.144Z,19.57
2018-06-10T03:13:33.405Z,21.40
2018-06-10T03:16:01.608Z,21.47
2018-06-10T03:18:29.840Z,22.40
2018-06-10T03:20:58.047Z,24.37
2018-06-10T03:23:26.291Z,20.83
2018-06-10T03:25:54.506Z,22.93
2018-06-10T03:28:22.792Z,21.90
2018-06-10T03:30:51.120Z,23.13
2018-06-10T03:33:19.353Z,22.77
2018-06-10T03:35:47.594Z,18.87
2018-06-10T03:38:15.554Z,21.27
2018-06-10T03:40:43.789Z,22.37
2018-06-10T03:43:12.017Z,24.20
2018-06-10T03:45:40.007Z,22.10
2018-06-10T03:48:08.236Z,21.17
2018-06-10T03:50:36.455Z,24.47
2018-06-10T03:53:05.949Z,23.40
2018-06-10T03:55:33.901Z,21.47
2018-06-10T03:58:02.163Z,22.27
2018-06-10T04:00:30.489Z,21.27
2018-06-10T04:02:58.761Z,24.20
2018-06-10T04:05:26.999Z,22.43
2018-06-10T04:07:55.239Z,21.97
2018-06-10T04:10:23.219Z,25.03
2018-06-10T04:12:51.444Z,23.80
2018-06-10T04:15:19.683Z,23.77
2018-06-10T04:17:47.920Z,23.17
2018-06-10T04:20:16.148Z,24.50
2018-06-10T04:22:44.362Z,23.37
2018-06-10T04:25:12.624Z,23.23
2018-06-10T04:27:40.828Z,22.33
2018-06-10T04:30:08.883Z,23.80
2018-06-10T04:32:37.119Z,22.50
2018-06-10T04:35:05.382Z,21.30
2018-06-10T04:37:33.616Z,22.13
2018-06-10T04:40:01.837Z,22.77
2018-06-10T04:42:30.032Z,22.77
2018-06-10T04:44:58.284Z,22.07
2018-06-10T04:47:28.320Z,22.07
2018-06-10T04:49:57.402Z,22.07
2018-06-10T04:52:25.793Z,22.87
2018-06-10T04:54:54.053Z,21.40
2018-06-10T04:57:22.339Z,22.77
2018-06-10T04:59:50.739Z,21.07
2018-06-10T05:02:18.943Z,22.57
2018-06-10T05:04:46.935Z,22.63
2018-06-10T05:07:15.148Z,22.37
2018-06-10T05:09:43.398Z,22.40
2018-06-10T05:12:11.632Z,23.03
2018-06-10T05:14:39.828Z,23.40
2018-06-10T05:17:08.070Z,22.47
2018-06-10T05:19:36.320Z,21.40
2018-06-10T05:22:04.274Z,22.57
2018-06-10T05:24:32.509Z,21.50
2018-06-10T05:27:00.735Z,23.40
2018-06-10T05:29:28.739Z,22.53
2018-06-10T05:31:56.977Z,21.77
2018-06-10T05:34:25.179Z,20.90
2018-06-10T05:36:53.405Z,22.40
2018-06-10T05:39:21.370Z,22.13
2018-06-10T05:41:49.593Z,20.90
2018-06-10T05:44:17.792Z,22.37
2018-06-10T05:46:46.026Z,21.43
2018-06-10T05:49:14.255Z,19.53
2018-06-10T05:51:42.488Z,20.00
2018-06-10T05:54:10.732Z,18.70
2018-06-10T05:56:38.937Z,18.63
2018-06-10T05:59:07.351Z,20.03
2018-06-10T06:01:35.605Z,18.00
2018-06-10T06:04:03.818Z,19.23
2018-06-10T06:06:31.851Z,18.93
2018-06-10T06:09:00.084Z,18.57
2018-06-10T06:11:28.308Z,18.87
2018-06-10T06:13:56.523Z,19.20
2018-06-10T06:16:24.736Z,18.77
2018-06-10T06:18:52.978Z,18.17
2018-06-10T06:21:21.246Z,16.37
2018-06-10T06:23:49.469Z,17.87
2018-06-10T06:26:17.687Z,18.27
2018-06-10T06:28:45.903Z,17.13
2018-06-10T06:31:14.376Z,18.77
2018-06-10T06:33:42.672Z,17.53
2018-06-10T06:36:10.923Z,17.87
2018-06-10T06:38:39.200Z,18.70
2018-06-10T06:41:07.456Z,17.50
2018-06-10T06:43:35.733Z,17.87
2018-06-10T06:46:03.987Z,19.50
2018-06-10T06:48:32.179Z,16.50
2018-06-10T06:51:00.580Z,20.00
2018-06-10T06:53:28.944Z,19.10
2018-06-10T06:55:57.301Z,18.37
2018-06-10T06:58:25.616Z,17.17
2018-06-10T07:00:53.938Z,18.40
2018-06-10T07:03:28.674Z,18.60
2018-06-10T07:05:57.190Z,17.60
2018-06-10T07:08:25.444Z,17.47
2018-06-10T07:10:53.721Z,17.67
2018-06-10T07:13:21.973Z,18.33
2018-06-10T07:15:50.260Z,18.97
2018-06-10T07:18:18.514Z,18.70
2018-06-10T07:20:46.560Z,19.53
2018-06-10T07:23:14.857Z,17.57
2018-06-10T07:25:43.104Z,17.80
2018-06-10T07:28:11.310Z,20.67
2018-06-10T07:30:39.584Z,19.07
2018-06-10T07:33:07.830Z,18.60
2018-06-10T07:35:36.953Z,17.17
2018-06-10T07:38:05.571Z,18.70
2018-06-10T07:40:34.322Z,17.23
2018-06-10T07:43:02.558Z,17.77
2018-06-10T07:45:31.413Z,16.83
2018-06-10T07:47:59.923Z,17.43
2018-06-10T07:50:28.455Z,17.90
2018-06-10T07:52:57.014Z,17.00
2018-06-10T07:55:25.755Z,16.70
2018-06-10T07:57:54.275Z,17.50
2018-06-10T08:00:22.815Z,17.93
2018-06-10T08:02:51.052Z,15.17
2018-06-10T08:05:19.356Z,16.53
2018-06-10T08:07:47.609Z,15.73
2018-06-10T08:10:15.859Z,15.77
2018-06-10T08:12:44.055Z,16.40
2018-06-10T08:15:12.711Z,16.70
2018-06-10T08:17:41.713Z,15.03
2018-06-10T08:20:11.226Z,15.07
2018-06-10T08:22:39.472Z,15.70
2018-06-10T08:25:07.760Z,14.43
2018-06-10T08:27:36.314Z,14.90
2018-06-10T08:30:05.508Z,15.50
2018-06-10T08:32:33.721Z,15.33
2018-06-10T08:35:02.096Z,14.20
2018-06-10T08:37:30.403Z,15.07
2018-06-10T08:39:59.483Z,13.30
2018-06-10T08:42:27.939Z,16.57
2018-06-10T08:44:56.406Z,14.27
2018-06-10T08:47:24.788Z,14.83
2018-06-10T08:49:53.321Z,14.77
2018-06-10T08:52:21.388Z,15.00
2018-06-10T08:54:49.726Z,13.90
2018-06-10T08:57:18.530Z,13.10
2018-06-10T08:59:46.860Z,13.50
2018-06-10T09:02:15.198Z,15.17
2018-06-10T09:04:43.596Z,14.90
2018-06-10T09:07:12.183Z,14.77
2018-06-10T09:09:40.418Z,12.57
2018-06-10T09:12:08.900Z,12.83
2018-06-10T09:17:36.663Z,13.37
2018-06-10T09:20:05.144Z,11.60
2018-06-10T09:22:33.643Z,12.30
2018-06-10T09:25:01.928Z,12.13
2018-06-10T09:27:30.480Z,12.50
2018-06-10T09:29:58.761Z,13.93
2018-06-10T09:32:27.040Z,12.90
2018-06-10T09:34:55.285Z,11.97
2018-06-10T09:37:23.520Z,12.30
2018-06-10T09:39:51.882Z,11.03
2018-06-10T09:42:20.172Z,11.83
2018-06-10T09:44:48.461Z,12.03
2018-06-10T09:47:16.676Z,13.03
2018-06-10T09:49:44.897Z,9.30
2018-06-10T09:52:13.119Z,11.50
2018-06-10T09:54:41.353Z,13.30
2018-06-10T09:57:09.626Z,9.67
2018-06-10T09:59:37.854Z,12.03
2018-06-10T10:02:06.294Z,10.80
2018-06-10T10:04:34.551Z,11.10
2018-06-10T10:07:02.572Z,12.40
2018-06-10T10:09:30.991Z,12.30
2018-06-10T10:11:59.226Z,11.07
2018-06-10T10:14:27.481Z,12.23
2018-06-10T10:16:55.459Z,11.17
2018-06-10T10:19:23.739Z,11.00
2018-06-10T10:21:52.108Z,11.17
2018-06-10T10:24:20.675Z,12.87
2018-06-10T10:26:48.914Z,11.07
2018-06-10T10:29:17.199Z,13.63
2018-06-10T10:31:45.477Z,11.00
2018-06-10T10:34:13.690Z,11.67
2018-06-10T10:36:41.920Z,10.40
2018-06-10T10:39:10.336Z,12.27
2018-06-10T10:41:38.583Z,11.57
2018-06-10T10:44:06.817Z,10.80
2018-06-10T10:46:35.032Z,12.90
2018-06-10T10:49:03.275Z,11.90
2018-06-10T10:51:31.529Z,9.50
2018-06-10T10:53:59.808Z,9.93
2018-06-10T10:56:28.053Z,11.50
2018-06-10T10:58:56.252Z,11.63
2018-06-10T11:01:24.504Z,11.77
2018-06-10T11:03:53.030Z,10.67
2018-06-10T11:06:21.297Z,9.60
2018-06-10T11:08:49.669Z,10.43
2018-06-10T11:11:17.861Z,9.70
2018-06-10T11:13:46.088Z,9.93
2018-06-10T11:16:14.998Z,9.03
2018-06-10T11:18:43.223Z,9.47
2018-06-10T11:21:11.462Z,9.30
2018-06-10T11:23:39.688Z,8.60
2018-06-10T11:26:07.887Z,9.10
2018-06-10T11:28:36.108Z,9.53
2018-06-10T11:31:04.766Z,8.50
2018-06-10T11:33:33.035Z,9.80
2018-06-10T11:36:01.283Z,9.30
2018-06-10T11:38:29.517Z,9.23
2018-06-10T11:40:57.764Z,10.00
2018-06-10T11:43:25.724Z,8.20
2018-06-10T11:45:53.944Z,8.07
2018-06-10T11:48:22.804Z,9.30
2018-06-10T11:50:51.121Z,8.80
2018-06-10T11:53:19.516Z,7.90
2018-06-10T11:55:47.803Z,8.10
2018-06-10T11:58:16.083Z,7.63
2018-06-10T12:00:44.427Z,8.37
2018-06-10T12:03:12.681Z,8.47
2018-06-10T12:05:40.928Z,8.13
2018-06-10T12:08:09.165Z,9.43
2018-06-10T12:10:37.470Z,8.20
2018-06-10T12:13:05.709Z,7.80
2018-06-10T12:15:34.011Z,8.63
2018-06-10T12:18:02.244Z,7.60
2018-06-10T12:20:30.480Z,7.30
2018-06-10T12:22:58.701Z,7.73
2018-06-10T12:25:26.955Z,9.07
2018-06-10T12:27:55.000Z,7.63
2018-06-10T12:30:23.728Z,9.53
2018-06-10T12:32:51.695Z,7.93
2018-06-10T12:35:19.940Z,8.20
2018-06-10T12:37:48.174Z,7.77
2018-06-10T12:40:16.192Z,7.93
2018-06-10T12:42:44.432Z,7.80
2018-06-10T12:45:12.677Z,7.93
2018-06-10T12:47:40.904Z,6.67
2018-06-10T12:50:09.146Z,7.20
2018-06-10T12:52:37.152Z,6.97
2018-06-10T12:55:05.756Z,8.40
2018-06-10T12:57:34.558Z,8.33
2018-06-10T13:00:02.627Z,7.60
2018-06-10T13:02:30.845Z,6.67
2018-06-10T13:04:59.101Z,7.33
2018-06-10T13:07:27.359Z,7.97
2018-06-10T13:09:55.628Z,7.17
2018-06-10T13:12:23.829Z,6.87
2018-06-10T13:14:51.820Z,7.23
2018-06-10T13:17:20.072Z,6.50
2018-06-10T13:19:48.308Z,6.53
2018-06-10T13:22:16.607Z,7.93
2018-06-10T13:24:44.832Z,7.37
2018-06-10T13:27:13.042Z,6.00
2018-06-10T13:29:41.457Z,6.43
2018-06-10T13:32:09.700Z,6.47
2018-06-10T13:34:37.932Z,7.30
2018-06-10T13:37:05.928Z,6.23
2018-06-10T13:39:34.132Z,8.47
2018-06-10T13:42:02.395Z,6.30
2018-06-10T13:44:30.612Z,7.13
2018-06-10T13:46:58.717Z,7.60
2018-06-10T13:49:26.687Z,6.43
2018-06-10T13:51:54.928Z,6.03
2018-06-10T13:54:23.164Z,5.80
2018-06-10T13:56:51.472Z,6.80
2018-06-10T13:59:19.733Z,7.17
2018-06-10T14:01:47.970Z,6.13
2018-06-10T14:04:16.180Z,6.00
2018-06-10T14:06:44.421Z,6.53
2018-06-10T14:09:12.644Z,6.27
2018-06-10T14:11:40.864Z,5.63
2018-06-10T14:14:09.125Z,6.43
2018-06-10T14:16:37.405Z,5.60
2018-06-10T14:19:05.668Z,4.93
2018-06-10T14:21:33.675Z,6.20
2018-06-10T14:24:01.908Z,4.80
2018-06-10T14:26:30.150Z,4.93
2018-06-10T14:28:58.425Z,5.43
2018-06-10T14:31:26.611Z,5.30
2018-06-10T14:33:54.856Z,5.33
2018-06-10T14:36:23.069Z,5.90
2018-06-10T14:38:51.326Z,6.10
2018-06-10T14:41:19.578Z,5.97
2018-06-10T14:43:47.564Z,5.30
2018-06-10T14:46:15.787Z,5.37
2018-06-10T14:48:44.063Z,6.27
2018-06-10T14:51:12.307Z,5.83
2018-06-10T14:53:40.563Z,5.33
2018-06-10T14:56:08.529Z,5.80
2018-06-10T14:58:36.776Z,5.10
2018-06-10T15:01:04.976Z,4.80
2018-06-10T15:03:33.202Z,5.03
2018-06-10T15:06:01.465Z,5.37
2018-06-10T15:08:29.737Z,3.97
2018-06-10T15:10:57.989Z,3.40
2018-06-10T15:13:26.204Z,4.50
2018-06-10T15:15:54.429Z,3.87
2018-06-10T15:18:22.665Z,3.60
2018-06-10T15:20:51.074Z,3.97
2018-06-10T15:23:19.320Z,3.50
2018-06-10T15:25:47.615Z,3.70
2018-06-10T15:28:15.855Z,3.47
2018-06-10T15:30:44.090Z,4.20
2018-06-10T15:33:12.342Z,3.50
2018-06-10T15:35:40.539Z,3.97
2018-06-10T15:38:08.747Z,4.23
2018-06-10T15:40:37.602Z,4.20
2018-06-10T15:43:05.852Z,5.20
2018-06-10T15:45:34.048Z,4.67
2018-06-10T15:48:02.308Z,6.40
2018-06-10T15:50:30.621Z,5.57
2018-06-10T15:52:58.866Z,5.80
2018-06-10T15:55:27.120Z,5.30
2018-06-10T15:57:55.346Z,5.90
2018-06-10T16:00:23.588Z,5.80
2018-06-10T16:02:51.820Z,6.93
2018-06-10T16:05:20.098Z,5.63
2018-06-10T16:07:48.304Z,6.70
2018-06-10T16:10:16.555Z,6.53
2018-06-10T16:12:44.803Z,6.47
2018-06-10T16:15:13.015Z,6.70
2018-06-10T16:17:41.287Z,7.23
2018-06-10T16:20:09.704Z,7.30
2018-06-10T16:22:38.024Z,8.30
2018-06-10T16:25:06.849Z,7.70
2018-06-10T16:27:35.097Z,8.50
2018-06-10T16:30:03.405Z,8.10
2018-06-10T16:32:31.624Z,7.37
2018-06-10T16:34:59.626Z,6.97
2018-06-10T16:37:27.883Z,7.57
2018-06-10T16:39:56.201Z,7.50
2018-06-10T16:42:24.473Z,8.70
2018-06-10T16:44:52.707Z,7.67
2018-06-10T16:47:20.928Z,7.30
2018-06-10T16:49:49.387Z,7.90
2018-06-10T16:52:17.636Z,8.83
2018-06-10T16:54:45.628Z,7.00
2018-06-10T16:57:13.861Z,6.93
2018-06-10T16:59:45.152Z,7.10
2018-06-10T17:02:13.404Z,7.13
2018-06-10T17:04:41.422Z,7.13
2018-06-10T17:07:09.657Z,6.53
2018-06-10T17:09:38.234Z,6.23
2018-06-10T17:12:06.474Z,6.90
2018-06-10T17:14:34.709Z,5.30
2018-06-10T17:17:03.411Z,6.87
2018-06-10T17:19:31.843Z,6.00
2018-06-10T17:22:00.083Z,6.20
2018-06-10T17:24:28.384Z,5.97
2018-06-10T17:26:56.775Z,5.20
2018-06-10T17:29:25.317Z,4.77
2018-06-10T17:31:53.571Z,4.90
2018-06-10T17:34:21.841Z,4.90
2018-06-10T17:36:50.095Z,5.13
2018-06-10T17:39:18.106Z,4.77
2018-06-10T17:41:46.359Z,4.67
2018-06-10T17:44:14.816Z,5.13
2018-06-10T17:46:43.019Z,4.50
2018-06-10T17:49:11.385Z,4.50
2018-06-10T17:51:39.631Z,4.10
2018-06-10T17:54:07.839Z,3.80
2018-06-10T17:56:35.844Z,3.77
2018-06-10T17:59:04.024Z,3.97
2018-06-10T18:01:32.277Z,3.73
2018-06-10T18:04:00.672Z,3.77
2018-06-10T18:06:28.899Z,3.77
2018-06-10T18:08:57.168Z,4.23
2018-06-10T18:11:25.399Z,3.60
2018-06-10T18:13:53.644Z,3.33
2018-06-10T18:16:21.899Z,4.13
2018-06-10T18:18:50.139Z,3.93
2018-06-10T18:21:18.390Z,4.23
2018-06-10T18:23:46.620Z,3.70
2018-06-10T18:26:14.872Z,4.33
2018-06-10T18:28:43.132Z,4.40
2018-06-10T18:31:11.376Z,4.47
2018-06-10T18:33:40.291Z,5.10
2018-06-10T18:36:08.539Z,4.50
2018-06-10T18:38:37.789Z,5.03
2018-06-10T18:41:06.275Z,4.97
2018-06-10T18:43:36.869Z,5.30
2018-06-10T18:46:06.388Z,5.53
2018-06-10T18:48:34.866Z,6.90
2018-06-10T18:51:06.724Z,6.17
2018-06-10T18:53:42.145Z,6.10
2018-06-10T18:56:10.551Z,6.33
2018-06-10T18:58:38.842Z,6.20
2018-06-10T19:01:07.310Z,6.90
2018-06-10T19:03:35.798Z,6.27
2018-06-10T19:06:04.318Z,7.40
2018-06-10T19:08:32.735Z,6.77
2018-06-10T19:11:01.195Z,8.17
2018-06-10T19:13:29.424Z,7.47
2018-06-10T19:15:58.459Z,7.40
2018-06-10T19:18:26.819Z,6.73
2018-06-10T19:20:55.164Z,7.33
2018-06-10T19:23:23.515Z,7.07
2018-06-10T19:25:52.011Z,7.10
2018-06-10T19:28:20.241Z,6.47
2018-06-10T19:30:48.768Z,7.43
2018-06-10T19:33:17.193Z,6.57
2018-06-10T19:35:45.638Z,7.33
2018-06-10T19:38:14.166Z,7.47
2018-06-10T19:40:42.616Z,7.53
2018-06-10T19:43:11.844Z,7.87
2018-06-10T19:45:40.144Z,7.53
2018-06-10T19:48:08.635Z,7.03
2018-06-10T19:50:37.135Z,7.90
2018-06-10T19:53:06.158Z,9.23
2018-06-10T19:55:34.587Z,7.50
2018-06-10T19:58:03.282Z,8.10
2018-06-10T20:00:32.421Z,7.67
2018-06-10T20:03:01.002Z,8.73
2018-06-10T20:05:29.864Z,7.80
2018-06-10T20:07:59.136Z,7.87
2018-06-10T20:10:28.361Z,7.97
2018-06-10T20:12:56.976Z,8.93
2018-06-10T20:15:26.062Z,7.50
2018-06-10T20:17:54.447Z,7.73
2018-06-10T20:20:22.962Z,7.50
2018-06-10T20:22:51.306Z,7.90
2018-06-10T20:25:19.285Z,7.90
2018-06-10T20:27:47.512Z,8.30
2018-06-10T20:30:15.809Z,8.90
2018-06-10T20:32:43.998Z,8.70
2018-06-10T20:35:12.242Z,8.37
2018-06-10T20:37:40.445Z,8.20
2018-06-10T20:40:09.412Z,8.80
2018-06-10T20:42:37.660Z,8.40
2018-06-10T20:45:07.099Z,9.93
2018-06-10T20:47:35.332Z,9.23
2018-06-10T20:50:03.593Z,8.63
2018-06-10T20:52:31.583Z,9.00
2018-06-10T20:55:00.218Z,9.20
2018-06-10T20:57:28.448Z,9.07
2018-06-10T20:59:56.673Z,9.70
2018-06-10T21:02:24.895Z,9.10
2018-06-10T21:04:53.106Z,9.33
2018-06-10T21:07:21.349Z,10.03
2018-06-10T21:09:49.377Z,9.63
2018-06-10T21:12:17.643Z,10.03
2018-06-10T21:14:45.877Z,10.40
2018-06-10T21:17:14.056Z,10.30
2018-06-10T21:19:42.303Z,8.80
2018-06-10T21:22:10.287Z,10.33
2018-06-10T21:24:38.507Z,10.03
2018-06-10T21:27:06.743Z,9.70
2018-06-10T21:29:34.744Z,9.50
2018-06-10T21:32:02.945Z,8.70
2018-06-10T21:34:31.179Z,9.00
2018-06-10T21:36:59.146Z,8.90
2018-06-10T21:39:27.571Z,9.70
2018-06-10T21:41:55.817Z,10.13
2018-06-10T21:44:24.056Z,9.87
2018-06-10T21:46:52.054Z,9.10
2018-06-10T21:49:20.259Z,9.83
2018-06-10T21:51:48.463Z,9.40
2018-06-10T21:54:16.672Z,8.67
2018-06-10T21:56:44.904Z,10.00
2018-06-10T21:59:13.163Z,9.67
2018-06-10T22:01:41.372Z,8.67
2018-06-10T22:04:09.607Z,10.10
2018-06-10T22:06:37.856Z,9.33
2018-06-10T22:09:07.488Z,9.70
2018-06-10T22:11:35.953Z,9.60
2018-06-10T22:14:04.189Z,9.20
2018-06-10T22:16:32.385Z,9.50
2018-06-10T22:19:00.604Z,9.20
2018-06-10T22:21:28.840Z,9.77
2018-06-10T22:23:57.060Z,10.20
2018-06-10T22:26:25.300Z,9.20
2018-06-10T22:28:53.531Z,9.70
2018-06-10T22:31:21.731Z,9.60
2018-06-10T22:33:49.728Z,9.73
2018-06-10T22:36:17.980Z,10.60
2018-06-10T22:38:46.211Z,10.10
2018-06-10T22:41:14.403Z,8.93
2018-06-10T22:43:42.664Z,9.87
2018-06-10T22:46:10.899Z,10.40
2018-06-10T22:48:39.105Z,10.30
2018-06-10T22:51:07.337Z,10.27
2018-06-10T22:54:09.975Z,11.03
2018-06-10T22:56:38.407Z,9.60
2018-06-10T22:59:06.610Z,11.83
2018-06-10T23:01:34.872Z,10.27
2018-06-10T23:04:03.085Z,10.37
2018-06-10T23:06:31.356Z,10.20
2018-06-10T23:08:59.597Z,12.07
2018-06-10T23:11:27.783Z,10.87
2018-06-10T23:13:56.023Z,11.63
2018-06-10T23:16:23.995Z,10.87
2018-06-10T23:18:52.283Z,10.70
2018-06-10T23:21:20.472Z,10.33
2018-06-10T23:23:48.664Z,10.40
2018-06-10T23:26:16.872Z,9.87
2018-06-10T23:28:45.072Z,11.33
2018-06-10T23:31:13.300Z,11.40
2018-06-10T23:33:41.512Z,11.30
2018-06-10T23:36:09.733Z,10.30
2018-06-10T23:38:37.948Z,11.80
2018-06-10T23:41:06.147Z,10.50
2018-06-10T23:43:34.398Z,11.10
2018-06-10T23:46:02.647Z,10.77
2018-06-10T23:48:30.860Z,11.77
2018-06-10T23:50:59.486Z,13.40
2018-06-10T23:53:27.715Z,10.80
2018-06-10T23:55:55.934Z,11.13
2018-06-10T23:58:24.173Z,12.00
